createdAt,value
2024-02-05T00:01:40.310Z,0.65
2024-02-05T00:04:43.097Z,3.58
2024-02-05T00:07:45.143Z,1.63
2024-02-05T00:10:47.609Z,1.00
2024-02-05T00:13:49.464Z,0.60
2024-02-05T00:16:51.210Z,1.20
2024-02-05T00:19:53.773Z,3.90
2024-02-05T00:22:56.090Z,4.80
2024-02-05T00:25:57.866Z,1.83
2024-02-05T00:29:00.765Z,1.33
2024-02-05T00:32:02.481Z,0.95
2024-02-05T00:35:04.737Z,0.70
2024-02-05T00:38:07.033Z,0.60
2024-02-05T00:41:09.511Z,0.47
2024-02-05T00:44:11.811Z,0.63
2024-02-05T00:47:13.699Z,0.73
2024-02-05T00:50:15.442Z,0.90
2024-02-05T00:53:17.280Z,0.73
2024-02-05T00:56:19.634Z,0.77
2024-02-05T00:59:21.443Z,0.60
2024-02-05T01:02:24.442Z,0.60
2024-02-05T01:05:26.915Z,0.63
2024-02-05T01:08:28.913Z,1.00
2024-02-05T01:11:30.683Z,1.00
2024-02-05T01:14:33.952Z,2.00
2024-02-05T01:17:35.780Z,1.63
2024-02-05T01:20:37.550Z,1.73
2024-02-05T01:23:39.456Z,1.70
2024-02-05T01:26:41.212Z,2.22
2024-02-05T01:29:43.655Z,3.33
2024-02-05T01:32:45.536Z,2.58
2024-02-05T01:35:47.287Z,2.30
2024-02-05T01:38:49.790Z,2.88
2024-02-05T01:41:51.655Z,5.10
2024-02-05T01:44:54.143Z,2.70
2024-02-05T01:47:56.231Z,3.15
2024-02-05T01:50:58.711Z,3.58
2024-02-05T01:54:00.553Z,1.98
2024-02-05T01:57:07.893Z,2.22
2024-02-05T02:00:15.855Z,2.37
2024-02-05T02:03:18.255Z,2.20
2024-02-05T02:06:21.819Z,2.53
2024-02-05T02:09:24.736Z,2.50
2024-02-05T02:12:26.936Z,2.55
2024-02-05T02:15:28.945Z,2.53
2024-02-05T02:18:34.237Z,2.55
2024-02-05T02:21:36.215Z,2.90
2024-02-05T02:24:38.094Z,2.65
2024-02-05T02:27:42.442Z,1.90
2024-02-05T02:30:45.006Z,1.97
2024-02-05T02:33:57.399Z,2.65
2024-02-05T02:37:06.804Z,3.03
2024-02-05T02:40:15.793Z,2.60
2024-02-05T02:43:19.440Z,2.30
2024-02-05T02:46:23.048Z,3.43
2024-02-05T02:49:24.957Z,2.50
2024-02-05T02:52:26.909Z,3.17
2024-02-05T02:55:28.993Z,2.22
2024-02-05T02:58:30.821Z,3.42
2024-02-05T03:01:32.713Z,3.93
2024-02-05T03:04:34.566Z,3.25
2024-02-05T03:07:36.499Z,3.85
2024-02-05T03:10:38.338Z,2.72
2024-02-05T03:13:40.035Z,2.60
2024-02-05T03:16:41.765Z,2.50
2024-02-05T03:19:43.612Z,2.85
2024-02-05T03:22:52.957Z,3.20
2024-02-05T03:26:00.312Z,3.00
2024-02-05T03:29:02.081Z,3.10
2024-02-05T03:32:04.894Z,2.33
2024-02-05T03:35:08.608Z,4.30
2024-02-05T03:38:10.461Z,3.03
2024-02-05T03:41:12.248Z,2.85
2024-02-05T03:44:14.028Z,4.45
2024-02-05T03:47:15.760Z,3.90
2024-02-05T03:50:18.554Z,3.08
2024-02-05T03:53:20.576Z,3.53
2024-02-05T03:56:22.382Z,3.35
2024-02-05T03:59:24.110Z,3.75
2024-02-05T04:02:28.210Z,3.43
2024-02-05T04:05:32.756Z,3.72
2024-02-05T04:08:35.007Z,3.60
2024-02-05T04:11:40.075Z,3.65
2024-02-05T04:14:41.841Z,5.40
2024-02-05T04:17:43.824Z,5.27
2024-02-05T04:20:45.614Z,3.88
2024-02-05T04:23:47.380Z,4.70
2024-02-05T04:26:49.106Z,4.97
2024-02-05T04:29:51.004Z,5.57
2024-02-05T04:32:52.781Z,4.17
2024-02-05T04:35:55.081Z,4.70
2024-02-05T04:38:56.850Z,6.90
2024-02-05T04:41:58.676Z,7.85
2024-02-05T04:45:00.484Z,10.93
2024-02-05T04:48:02.304Z,15.97
2024-02-05T04:51:10.966Z,13.05
2024-02-05T04:54:12.835Z,11.85
2024-02-05T04:57:14.573Z,9.88
2024-02-05T05:00:17.356Z,9.60
2024-02-05T05:03:19.115Z,9.87
2024-02-05T05:06:20.926Z,10.18
2024-02-05T05:09:23.328Z,15.05
2024-02-05T05:12:25.217Z,12.40
2024-02-05T05:15:29.049Z,14.85
2024-02-05T05:18:39.001Z,13.87
2024-02-05T05:21:41.002Z,11.70
2024-02-05T05:24:42.877Z,12.98
2024-02-05T05:27:44.744Z,12.95
2024-02-05T05:30:46.589Z,15.00
2024-02-05T05:33:48.623Z,16.37
2024-02-05T05:36:50.474Z,15.32
2024-02-05T05:39:52.714Z,13.18
2024-02-05T05:42:56.616Z,14.68
2024-02-05T05:45:59.035Z,9.20
2024-02-05T05:49:00.890Z,11.03
2024-02-05T05:52:02.767Z,10.98
2024-02-05T05:55:04.984Z,15.65
2024-02-05T05:58:12.788Z,14.73
2024-02-05T06:01:14.766Z,13.15
2024-02-05T06:04:16.727Z,11.60
2024-02-05T06:07:19.488Z,15.43
2024-02-05T06:10:21.944Z,12.55
2024-02-05T06:13:24.012Z,15.55
2024-02-05T06:16:25.942Z,16.02
2024-02-05T06:19:27.899Z,15.17
2024-02-05T06:22:29.741Z,15.45
2024-02-05T06:25:31.558Z,18.52
2024-02-05T06:28:33.518Z,19.05
2024-02-05T06:31:35.366Z,18.13
2024-02-05T06:34:37.295Z,20.13
2024-02-05T06:37:39.248Z,23.80
2024-02-05T06:40:41.110Z,19.55
2024-02-05T06:43:43.074Z,17.60
2024-02-05T06:46:45.969Z,18.75
2024-02-05T06:49:47.889Z,36.60
2024-02-05T06:52:50.216Z,32.25
2024-02-05T06:55:52.054Z,26.92
2024-02-05T06:58:53.883Z,18.63
2024-02-05T07:02:20.629Z,23.08
2024-02-05T07:05:24.372Z,23.13
2024-02-05T07:08:26.435Z,22.17
2024-02-05T07:11:28.403Z,24.27
2024-02-05T07:14:30.232Z,24.08
2024-02-05T07:17:34.142Z,22.17
2024-02-05T07:20:35.995Z,21.37
2024-02-05T07:23:39.127Z,22.85
2024-02-05T07:26:41.115Z,19.92
2024-02-05T07:29:43.650Z,24.23
2024-02-05T07:32:45.991Z,23.85
2024-02-05T07:35:48.165Z,26.80
2024-02-05T07:38:50.292Z,28.00
2024-02-05T07:41:52.122Z,25.45
2024-02-05T07:44:53.995Z,23.27
2024-02-05T07:47:55.819Z,23.08
2024-02-05T07:50:57.739Z,26.03
2024-02-05T07:53:59.710Z,23.25
2024-02-05T07:57:04.208Z,23.38
2024-02-05T08:00:06.773Z,25.58
2024-02-05T08:03:08.715Z,24.25
2024-02-05T08:06:19.637Z,23.73
2024-02-05T08:09:21.529Z,22.83
2024-02-05T08:12:23.631Z,24.05
2024-02-05T08:15:25.493Z,23.45
2024-02-05T08:18:27.231Z,22.13
2024-02-05T08:21:29.081Z,24.77
2024-02-05T08:24:30.933Z,21.20
2024-02-05T08:27:32.725Z,23.98
2024-02-05T08:30:34.555Z,19.77
2024-02-05T08:33:36.440Z,20.80
2024-02-05T08:36:38.294Z,19.63
2024-02-05T08:39:40.133Z,20.48
2024-02-05T08:42:46.793Z,18.80
2024-02-05T08:45:51.555Z,16.67
2024-02-05T08:48:53.679Z,16.73
2024-02-05T08:51:56.109Z,16.53
2024-02-05T08:54:58.044Z,17.17
2024-02-05T08:58:00.645Z,16.70
2024-02-05T09:01:02.600Z,17.02
2024-02-05T09:04:04.509Z,20.70
2024-02-05T09:07:06.464Z,15.90
2024-02-05T09:10:08.847Z,17.45
2024-02-05T09:13:10.782Z,16.45
2024-02-05T09:16:17.480Z,15.82
2024-02-05T09:19:20.232Z,14.60
2024-02-05T09:22:22.197Z,15.03
2024-02-05T09:25:24.134Z,16.70
2024-02-05T09:28:25.989Z,13.75
2024-02-05T09:31:27.849Z,35.75
2024-02-05T09:34:29.735Z,45.28
2024-02-05T09:37:31.642Z,16.97
2024-02-05T09:40:33.840Z,15.27
2024-02-05T09:43:43.362Z,16.48
2024-02-05T09:46:53.573Z,22.17
2024-02-05T09:49:58.137Z,17.52
2024-02-05T09:53:02.528Z,17.60
2024-02-05T09:56:07.263Z,15.90
2024-02-05T09:59:10.775Z,14.82
2024-02-05T10:02:16.786Z,19.45
2024-02-05T10:05:21.790Z,12.25
2024-02-05T10:08:24.486Z,3.30
2024-02-05T10:11:28.444Z,3.38
2024-02-05T10:14:30.445Z,6.00
2024-02-05T10:17:32.325Z,4.55
2024-02-05T10:20:34.701Z,1.00
2024-02-05T10:23:36.492Z,1.20
2024-02-05T10:26:38.332Z,0.60
2024-02-05T10:29:40.088Z,0.70
2024-02-05T10:32:42.037Z,1.17
2024-02-05T10:35:44.614Z,2.25
2024-02-05T10:38:47.253Z,0.93
2024-02-05T10:41:49.202Z,2.50
2024-02-05T10:44:51.891Z,0.80
2024-02-05T10:47:53.806Z,0.68
2024-02-05T10:50:55.848Z,1.77
2024-02-05T10:53:58.840Z,1.60
2024-02-05T10:57:01.362Z,0.68
2024-02-05T11:00:03.452Z,0.68
2024-02-05T11:03:12.570Z,2.97
2024-02-05T11:06:18.123Z,1.10
2024-02-05T11:09:24.563Z,1.83
2024-02-05T11:12:30.536Z,1.80
2024-02-05T11:15:38.670Z,4.15
2024-02-05T11:18:47.195Z,0.50
2024-02-05T11:21:56.403Z,0.88
2024-02-05T11:24:59.107Z,0.60
2024-02-05T11:28:02.620Z,1.08
2024-02-05T11:31:09.526Z,0.55
2024-02-05T11:34:12.586Z,0.55
2024-02-05T11:37:18.253Z,0.52
2024-02-05T11:40:23.051Z,0.43
2024-02-05T11:43:26.912Z,2.30
2024-02-05T11:46:29.029Z,0.43
2024-02-05T11:49:34.910Z,0.40
2024-02-05T11:52:44.499Z,1.65
2024-02-05T11:55:46.439Z,1.03
2024-02-05T11:58:52.477Z,2.05
2024-02-05T12:01:58.228Z,0.65
2024-02-05T12:05:01.860Z,0.55
2024-02-05T12:08:05.083Z,1.48
2024-02-05T12:11:07.661Z,0.50
2024-02-05T12:14:12.175Z,1.10
2024-02-05T12:17:14.797Z,0.45
2024-02-05T12:20:20.715Z,0.40
2024-02-05T12:23:22.666Z,3.83
2024-02-05T12:26:27.862Z,0.40
2024-02-05T12:29:30.345Z,1.83
2024-02-05T12:32:38.457Z,2.08
2024-02-05T12:36:08.981Z,1.55
2024-02-05T12:39:10.956Z,1.33
2024-02-05T12:42:13.922Z,1.07
2024-02-05T12:45:17.757Z,2.63
2024-02-05T12:48:23.922Z,0.40
2024-02-05T12:51:26.079Z,1.33
2024-02-05T12:54:27.903Z,0.43
2024-02-05T12:57:29.841Z,0.40
2024-02-05T13:00:31.681Z,0.38
2024-02-05T13:03:36.086Z,1.45
2024-02-05T13:06:38.082Z,1.30
2024-02-05T13:09:40.903Z,3.55
2024-02-05T13:12:43.168Z,1.87
2024-02-05T13:15:46.351Z,0.65
2024-02-05T13:18:48.288Z,1.85
2024-02-05T13:21:50.320Z,1.90
2024-02-05T13:24:52.135Z,2.50
2024-02-05T13:27:54.133Z,0.73
2024-02-05T13:30:56.011Z,2.28
2024-02-05T13:33:57.951Z,2.45
2024-02-05T13:37:00.976Z,2.67
2024-02-05T13:40:03.170Z,0.63
2024-02-05T13:43:06.084Z,1.77
2024-02-05T13:46:08.051Z,1.63
2024-02-05T13:49:10.073Z,1.77
2024-02-05T13:52:12.318Z,1.98
2024-02-05T13:55:16.191Z,1.58
2024-02-05T13:58:18.418Z,1.60
2024-02-05T14:01:21.031Z,0.52
2024-02-05T14:04:23.194Z,2.13
2024-02-05T14:07:25.229Z,1.75
2024-02-05T14:10:27.159Z,1.85
2024-02-05T14:13:28.999Z,2.77
2024-02-05T14:16:31.172Z,0.40
2024-02-05T14:19:37.245Z,1.52
2024-02-05T14:22:39.110Z,13.32
2024-02-05T14:25:40.989Z,18.20
2024-02-05T14:28:43.116Z,7.73
2024-02-05T14:31:45.233Z,3.58
2024-02-05T14:34:48.362Z,3.63
2024-02-05T14:37:52.809Z,2.10
2024-02-05T14:40:54.641Z,2.35
2024-02-05T14:43:56.412Z,0.43
2024-02-05T14:46:58.231Z,1.63
2024-02-05T14:50:00.287Z,2.55
2024-02-05T14:53:02.560Z,1.08
2024-02-05T14:56:05.173Z,2.60
2024-02-05T14:59:07.697Z,2.33
2024-02-05T15:02:10.064Z,9.95
2024-02-05T15:05:13.544Z,7.57
2024-02-05T15:08:15.872Z,1.13
2024-02-05T15:11:17.680Z,1.80
2024-02-05T15:14:19.455Z,1.33
2024-02-05T15:17:21.228Z,2.17
2024-02-05T15:20:23.318Z,3.33
2024-02-05T15:23:25.205Z,1.55
2024-02-05T15:26:27.005Z,1.13
2024-02-05T15:29:29.189Z,1.10
2024-02-05T15:32:31.430Z,4.13
2024-02-05T15:35:33.369Z,4.97
2024-02-05T15:38:35.463Z,43.90
2024-02-05T15:41:37.377Z,42.58
2024-02-05T15:44:39.187Z,7.30
2024-02-05T15:47:41.408Z,4.53
2024-02-05T15:50:43.284Z,2.75
2024-02-05T15:53:46.854Z,2.17
2024-02-05T15:56:48.896Z,4.47
2024-02-05T15:59:50.775Z,2.17
2024-02-05T16:02:52.608Z,2.72
2024-02-05T16:05:55.697Z,2.75
2024-02-05T16:08:57.538Z,1.77
2024-02-05T16:11:59.799Z,1.40
2024-02-05T16:15:01.663Z,1.20
2024-02-05T16:18:04.768Z,1.42
2024-02-05T16:21:06.838Z,1.75
2024-02-05T16:24:09.003Z,1.45
2024-02-05T16:27:11.480Z,0.85
2024-02-05T16:30:13.859Z,2.60
2024-02-05T16:33:16.505Z,2.78
2024-02-05T16:36:18.816Z,3.83
2024-02-05T16:39:21.539Z,2.50
2024-02-05T16:42:27.609Z,3.17
2024-02-05T16:45:29.687Z,10.60
2024-02-05T16:48:31.545Z,20.88
2024-02-05T16:51:33.426Z,40.75
2024-02-05T16:54:35.445Z,20.95
2024-02-05T16:57:37.815Z,13.05
2024-02-05T17:00:39.656Z,5.37
2024-02-05T17:03:41.842Z,5.50
2024-02-05T17:06:44.488Z,8.90
2024-02-05T17:09:47.455Z,11.63
2024-02-05T17:12:49.764Z,12.88
2024-02-05T17:15:51.846Z,14.30
2024-02-05T17:18:53.821Z,14.05
2024-02-05T17:21:57.795Z,16.83
2024-02-05T17:25:00.447Z,13.82
2024-02-05T17:28:02.307Z,5.32
2024-02-05T17:31:04.261Z,5.83
2024-02-05T17:34:06.278Z,3.97
2024-02-05T17:37:08.295Z,4.25
2024-02-05T17:40:10.547Z,6.78
2024-02-05T17:43:12.347Z,5.55
2024-02-05T17:46:14.259Z,5.37
2024-02-05T17:49:16.428Z,3.78
2024-02-05T17:52:18.384Z,4.18
2024-02-05T17:55:21.271Z,5.90
2024-02-05T17:58:23.938Z,5.10
2024-02-05T18:01:25.884Z,7.70
2024-02-05T18:04:27.827Z,4.95
2024-02-05T18:07:29.802Z,3.70
2024-02-05T18:10:31.789Z,2.53
2024-02-05T18:13:33.799Z,11.55
2024-02-05T18:16:37.170Z,28.00
2024-02-05T18:19:39.154Z,9.13
2024-02-05T18:22:41.007Z,8.68
2024-02-05T18:25:42.883Z,6.60
2024-02-05T18:28:44.783Z,4.20
2024-02-05T18:31:51.140Z,2.83
2024-02-05T18:34:53.202Z,6.10
2024-02-05T18:37:55.158Z,3.47
2024-02-05T18:41:00.292Z,6.50
2024-02-05T18:44:02.356Z,5.45
2024-02-05T18:47:04.702Z,9.63
2024-02-05T18:50:07.110Z,5.97
2024-02-05T18:53:08.985Z,8.88
2024-02-05T18:56:12.136Z,9.98
2024-02-05T18:59:14.140Z,7.95
2024-02-05T19:02:16.146Z,8.23
2024-02-05T19:05:18.176Z,8.07
2024-02-05T19:08:20.436Z,5.53
2024-02-05T19:11:22.331Z,8.07
2024-02-05T19:14:24.160Z,7.50
2024-02-05T19:17:26.118Z,10.03
2024-02-05T19:20:29.200Z,12.25
2024-02-05T19:23:31.121Z,9.43
2024-02-05T19:26:32.987Z,10.45
2024-02-05T19:29:34.917Z,8.95
2024-02-05T19:32:36.749Z,7.93
2024-02-05T19:35:38.592Z,10.18
2024-02-05T19:38:40.345Z,8.52
2024-02-05T19:41:42.836Z,7.93
2024-02-05T19:44:44.630Z,7.35
2024-02-05T19:47:47.342Z,9.50
2024-02-05T19:50:49.189Z,8.95
2024-02-05T19:53:50.982Z,11.73
2024-02-05T19:56:52.845Z,14.88
2024-02-05T19:59:54.608Z,13.73
2024-02-05T20:02:56.393Z,17.47
2024-02-05T20:05:58.141Z,16.88
2024-02-05T20:09:04.181Z,16.50
2024-02-05T20:12:09.546Z,16.50
2024-02-05T20:15:13.108Z,19.00
2024-02-05T20:18:16.166Z,16.43
2024-02-05T20:21:19.532Z,19.77
2024-02-05T20:24:21.286Z,18.35
2024-02-05T20:27:23.110Z,17.17
2024-02-05T20:30:24.844Z,14.95
2024-02-05T20:33:26.777Z,17.27
2024-02-05T20:36:28.652Z,17.58
2024-02-05T20:39:30.436Z,17.73
2024-02-05T20:42:32.215Z,17.08
2024-02-05T20:45:34.048Z,22.63
2024-02-05T20:48:36.524Z,19.27
2024-02-05T20:51:38.438Z,19.88
2024-02-05T20:54:40.272Z,19.13
2024-02-05T20:57:42.028Z,18.67
2024-02-05T21:00:47.464Z,22.05
2024-02-05T21:03:49.686Z,20.23
2024-02-05T21:06:51.854Z,21.02
2024-02-05T21:09:53.758Z,23.73
2024-02-05T21:12:55.585Z,22.30
2024-02-05T21:15:57.890Z,22.15
2024-02-05T21:18:59.991Z,27.03
2024-02-05T21:22:01.924Z,21.60
2024-02-05T21:25:04.253Z,20.23
2024-02-05T21:28:06.606Z,21.90
2024-02-05T21:31:08.550Z,22.60
2024-02-05T21:34:11.209Z,21.60
2024-02-05T21:37:13.228Z,23.08
2024-02-05T21:40:15.351Z,24.40
2024-02-05T21:43:17.251Z,21.90
2024-02-05T21:46:19.186Z,19.30
2024-02-05T21:49:21.179Z,22.33
2024-02-05T21:52:24.197Z,25.30
2024-02-05T21:55:26.054Z,22.27
2024-02-05T21:58:27.829Z,25.70
2024-02-05T22:01:29.875Z,22.90
2024-02-05T22:04:31.960Z,23.40
2024-02-05T22:07:34.030Z,25.10
2024-02-05T22:10:36.145Z,26.08
2024-02-05T22:13:37.945Z,25.45
2024-02-05T22:16:39.789Z,27.85
2024-02-05T22:19:42.474Z,23.90
2024-02-05T22:22:44.321Z,25.35
2024-02-05T22:25:46.477Z,27.42
2024-02-05T22:28:48.534Z,24.60
2024-02-05T22:31:51.797Z,27.25
2024-02-05T22:34:57.231Z,26.03
2024-02-05T22:37:59.127Z,25.13
2024-02-05T22:41:00.896Z,25.48
2024-02-05T22:44:02.805Z,26.15
2024-02-05T22:47:04.610Z,26.35
2024-02-05T22:50:07.166Z,28.60
2024-02-05T22:53:09.051Z,27.15
2024-02-05T22:56:10.829Z,27.50
2024-02-05T22:59:12.798Z,28.40
2024-02-05T23:02:14.673Z,26.60
2024-02-05T23:05:17.270Z,26.87
2024-02-05T23:08:19.156Z,26.17
2024-02-05T23:11:20.896Z,26.20
2024-02-05T23:14:24.512Z,26.77
2024-02-05T23:17:26.382Z,27.10
2024-02-05T23:20:28.129Z,24.07
2024-02-05T23:23:29.965Z,28.75
2024-02-05T23:26:31.748Z,27.80
2024-02-05T23:29:33.550Z,28.38
2024-02-05T23:32:36.041Z,29.38
2024-02-05T23:35:37.941Z,29.17
2024-02-05T23:38:39.720Z,26.80
2024-02-05T23:41:41.556Z,28.55
2024-02-05T23:44:43.398Z,28.25
2024-02-05T23:47:45.469Z,29.02
2024-02-05T23:50:47.309Z,27.73
2024-02-05T23:53:49.104Z,30.08
2024-02-05T23:56:51.543Z,30.10
2024-02-05T23:59:53.410Z,28.60
